Time;durP1;ratioP1;P1;durP2;ratioP2;P2;SDS_P1;SDS_P2;PMS_P1;PMS_P2;Temp;Humidity;BMP_temperature;BMP_pressure;BME280_temperature;BME280_humidity;BME280_pressure;Samples;Min_cycle;Max_cycle;Signal;HPM_P1;HPM_P2
2021/08/06 00:01:36;;;;;;;;;;;18.20;99.90;;;16.93;86.03;99997.13;3540780;39;102471;-40
2021/08/06 00:04:04;;;;;;;;;;;18.10;99.90;;;16.89;86.50;99996.03;3539894;39;102113;-40
2021/08/06 00:06:40;;;;;;;;;;;18.10;99.90;;;16.90;86.89;99996.84;3540139;39;102176;-41
2021/08/06 00:09:11;;;;;;;;;;;18.10;99.90;;;16.92;86.79;99994.63;3540312;39;103011;-42
2021/08/06 00:11:39;;;;;;;;;;;18.10;99.90;;;16.92;86.75;99994.63;3540288;39;102177;-41
2021/08/06 00:14:07;;;;;;;;;;;18.10;99.90;;;16.90;87.31;99994.94;3539469;39;103174;-40
2021/08/06 00:16:35;;;;;;;;;;;18.10;99.90;;;16.90;87.24;99996.84;3540564;39;102372;-40
2021/08/06 00:19:03;;;;;;;;;;;18.10;99.90;;;16.93;87.19;99996.28;3540206;39;103169;-40
2021/08/06 00:21:30;;;;;;;;;;;18.10;99.90;;;16.91;87.17;99992.97;3539837;39;102399;-41
2021/08/06 00:23:58;;;;;;;;;;;18.10;99.90;;;16.96;86.98;99985.56;3539715;39;104107;-39
2021/08/06 00:26:25;;;;;;;;;;;18.10;99.90;;;16.91;87.01;99985.56;3540427;39;102293;-40
2021/08/06 00:28:52;;;;;;;;;;;18.10;99.90;;;16.89;87.25;99986.94;3540260;39;103855;-40
2021/08/06 00:31:19;;;;;;;;;;;18.10;99.90;;;16.94;87.13;99986.91;3540046;39;102101;-40
2021/08/06 00:33:48;;;;;;;;;;;18.10;99.90;;;16.93;86.75;99990.78;3538923;39;102337;-40
2021/08/06 00:36:17;;;;;;;;;;;18.10;99.90;;;16.88;86.65;99971.50;3538417;39;102425;-41
2021/08/06 00:38:44;;;;;;;;;;;18.10;99.90;;;16.90;86.60;99974.81;3539983;39;103928;-41
2021/08/06 00:41:12;;;;;;;;;;;18.10;99.90;;;16.92;86.68;99986.38;3538989;39;104195;-40
2021/08/06 00:43:40;;;;;;;;;;;18.10;99.90;;;16.92;86.38;99980.88;3539049;39;102341;-41
2021/08/06 00:46:16;;;;;;;;;;;18.10;99.90;;;16.95;86.25;99977.56;3538866;39;102597;-40
2021/08/06 00:48:45;;;;;;;;;;;18.10;99.90;;;16.93;86.19;99975.09;3539712;39;104003;-40
2021/08/06 00:51:15;;;;;;;;;;;18.10;99.90;;;16.92;86.53;99972.59;3539532;39;104504;-41
2021/08/06 00:53:46;;;;;;;;;;;18.10;99.90;;;16.88;86.74;99979.75;3539995;39;104014;-40
2021/08/06 00:56:14;;;;;;;;;;;18.10;99.90;;;16.87;86.56;99975.34;3538687;39;102412;-40
2021/08/06 00:58:41;;;;;;;;;;;18.10;99.90;;;16.82;86.79;99970.66;3539830;39;102389;-40
2021/08/06 01:01:20;;;;;;;;;;;18.00;99.90;;;16.80;86.71;99968.19;3539333;39;102462;-41
2021/08/06 01:04:14;;;;;;;;;;;18.00;99.90;;;16.76;86.77;99969.03;3539103;39;103006;-41
2021/08/06 01:06:51;;;;;;;;;;;18.00;99.90;;;16.73;87.09;99959.41;3538851;39;104067;-41
2021/08/06 01:09:24;;;;;;;;;;;18.00;99.90;;;16.73;87.10;99961.31;3538777;39;104229;-40
2021/08/06 01:11:58;;;;;;;;;;;17.90;99.90;;;16.69;86.63;99961.03;3538730;39;102535;-41
2021/08/06 01:14:27;;;;;;;;;;;17.90;99.90;;;16.66;86.61;99959.66;3538807;39;104436;-41
2021/08/06 01:16:58;;;;;;;;;;;17.90;99.90;;;16.63;86.69;99962.97;3538735;39;102895;-41
2021/08/06 01:19:56;;;;;;;;;;;17.90;99.90;;;16.59;87.18;99964.63;3538494;39;103123;-41
2021/08/06 01:22:31;;;;;;;;;;;17.80;99.90;;;16.59;87.62;99966.53;3538701;39;102282;-40
2021/08/06 01:25:08;;;;;;;;;;;17.80;99.90;;;16.58;87.57;99962.13;3538953;39;103092;-41
2021/08/06 01:27:43;;;;;;;;;;;17.80;99.90;;;16.61;87.67;99958.81;3540810;39;102022;-40
2021/08/06 01:30:12;;;;;;;;;;;17.80;99.90;;;16.61;87.45;99945.91;3539971;39;102195;-41
2021/08/06 01:32:41;;;;;;;;;;;17.80;99.90;;;16.67;87.50;99954.97;3539779;39;104456;-41
2021/08/06 01:35:13;;;;;;;;;;;17.90;99.90;;;16.63;87.62;99948.34;3539636;39;103054;-40
2021/08/06 01:37:41;;;;;;;;;;;17.80;99.90;;;16.62;87.45;99941.19;3539995;39;102462;-40
2021/08/06 01:40:10;;;;;;;;;;;17.80;99.90;;;16.57;87.36;99939.25;3540616;39;104258;-41
2021/08/06 01:43:04;;;;;;;;;;;17.80;99.90;;;16.55;87.74;99941.47;3539853;39;102891;-40
2021/08/06 01:45:38;;;;;;;;;;;17.80;99.90;;;16.50;88.02;99942.31;3539706;39;104787;-42
2021/08/06 01:48:10;;;;;;;;;;;17.70;99.90;;;16.43;88.12;99943.66;3539782;39;102166;-41
2021/08/06 01:50:42;;;;;;;;;;;17.70;99.90;;;16.38;88.46;99937.06;3540785;39;103914;-40
2021/08/06 01:53:19;;;;;;;;;;;17.60;99.90;;;16.36;88.82;99936.50;3539999;39;102476;-40
2021/08/06 01:56:01;;;;;;;;;;;17.60;99.90;;;16.35;89.01;99942.28;3539569;39;103058;-41
2021/08/06 01:58:54;;;;;;;;;;;17.60;99.90;;;16.29;89.59;99937.88;3540165;39;102954;-40
2021/08/06 02:01:30;;;;;;;;;;;17.50;99.90;;;16.29;89.56;99938.69;3540395;39;105327;-41
2021/08/06 02:04:12;;;;;;;;;;;17.50;99.90;;;16.29;90.18;99935.13;3540255;39;103064;-40
2021/08/06 02:06:45;;;;;;;;;;;17.50;99.90;;;16.28;90.08;99937.03;3539849;39;102237;-41
2021/08/06 02:09:21;;;;;;;;;;;17.50;99.90;;;16.31;91.17;99933.75;3541108;39;102234;-40
2021/08/06 02:11:52;;;;;;;;;;;17.50;99.90;;;16.31;91.46;99924.66;3540433;39;104792;-40
2021/08/06 02:14:24;;;;;;;;;;;17.50;99.90;;;16.33;91.69;99927.97;3539770;39;102390;-40
2021/08/06 02:16:53;;;;;;;;;;;17.50;99.90;;;16.32;91.57;99929.06;3671442;22;104849;-40
2021/08/06 02:19:32;;;;;;;;;;;17.50;99.90;;;16.33;92.31;99933.47;3529790;39;102823;-39
2021/08/06 02:22:09;;;;;;;;;;;17.60;99.90;;;16.33;92.30;99927.97;3528465;39;103095;-39
2021/08/06 02:24:41;;;;;;;;;;;17.50;99.90;;;16.32;92.58;99929.06;3520640;39;104290;-40
2021/08/06 02:27:16;;;;;;;;;;;17.50;99.90;;;16.34;92.93;99926.84;3521478;39;104103;-40
2021/08/06 02:29:46;;;;;;;;;;;17.60;99.90;;;16.34;92.86;99924.09;3528401;39;104039;-39
2021/08/06 02:32:19;;;;;;;;;;;17.50;99.90;;;16.32;92.86;99923.56;3519690;40;104186;-39
2021/08/06 02:34:49;;;;;;;;;;;17.50;99.90;;;16.37;92.91;99935.41;3519754;40;102785;-40
2021/08/06 02:37:17;;;;;;;;;;;17.60;99.90;;;16.41;92.99;99921.91;3520493;40;104031;-41
2021/08/06 02:39:44;;;;;;;;;;;17.60;99.90;;;16.38;92.94;99923.31;3521075;39;102789;-39
2021/08/06 02:42:11;;;;;;;;;;;17.60;99.90;;;16.39;93.04;99922.19;3521174;39;104021;-40
2021/08/06 02:44:40;;;;;;;;;;;17.60;99.90;;;16.46;92.94;99919.19;3520892;39;102119;-41
2021/08/06 02:47:09;;;;;;;;;;;17.60;99.90;;;16.46;92.85;99921.09;3520838;39;103314;-40
2021/08/06 02:49:36;;;;;;;;;;;17.60;99.90;;;16.45;92.35;99920.28;3521257;39;102313;-39
2021/08/06 02:52:06;;;;;;;;;;;17.60;99.90;;;16.46;92.69;99924.69;3520665;39;104996;-39
2021/08/06 02:54:35;;;;;;;;;;;17.70;99.90;;;16.48;92.60;99914.22;3511812;40;102816;-40
2021/08/06 02:57:03;;;;;;;;;;;17.60;99.90;;;16.50;92.67;99916.69;3519587;40;104010;-40
2021/08/06 02:59:31;;;;;;;;;;;17.70;99.90;;;16.49;92.40;99912.28;3528272;39;102297;-39
2021/08/06 03:01:58;;;;;;;;;;;17.70;99.90;;;16.53;92.19;99914.22;3528558;39;105639;-40
2021/08/06 03:04:27;;;;;;;;;;;17.70;99.90;;;16.49;91.98;99910.38;3527995;39;102240;-39
2021/08/06 03:06:54;;;;;;;;;;;17.70;99.90;;;16.48;91.51;99914.22;3519780;39;103657;-39
2021/08/06 03:09:24;;;;;;;;;;;17.60;99.90;;;16.46;91.27;99912.84;3519834;40;102649;-39
2021/08/06 03:11:52;;;;;;;;;;;17.70;99.90;;;16.45;91.41;99902.94;3527830;39;103073;-40
2021/08/06 03:14:20;;;;;;;;;;;17.70;99.90;;;16.45;91.50;99909.28;3519630;39;102177;-39
2021/08/06 03:16:48;;;;;;;;;;;17.70;99.90;;;16.43;91.68;99902.38;3520619;40;104169;-39
2021/08/06 03:19:15;;;;;;;;;;;17.60;99.90;;;16.44;92.09;99901.28;3521359;39;103230;-39
2021/08/06 03:21:42;;;;;;;;;;;17.70;99.90;;;16.40;92.48;99903.75;3521108;39;102472;-39
2021/08/06 03:24:09;;;;;;;;;;;17.60;99.90;;;16.35;92.64;99901.84;3520517;39;102815;-40
2021/08/06 03:26:38;;;;;;;;;;;17.60;99.90;;;16.37;93.28;99885.88;3519943;40;104544;-39
2021/08/06 03:29:06;;;;;;;;;;;17.60;99.90;;;16.35;92.98;99890.81;3521276;39;102544;-39
2021/08/06 03:31:33;;;;;;;;;;;17.50;99.90;;;16.33;93.10;99893.03;3520590;39;102098;-41
2021/08/06 03:34:01;;;;;;;;;;;17.50;99.90;;;16.36;93.15;99891.63;3519518;40;102873;-39
2021/08/06 03:36:28;;;;;;;;;;;17.50;99.90;;;16.35;92.89;99887.22;3519477;40;103149;-39
2021/08/06 03:38:56;;;;;;;;;;;17.50;99.90;;;16.26;92.79;99873.19;3519291;40;103470;-39
2021/08/06 03:41:24;;;;;;;;;;;17.50;99.90;;;16.25;93.67;99886.13;3520751;39;105239;-39
2021/08/06 03:43:55;;;;;;;;;;;17.50;99.90;;;16.29;93.85;99882.81;3519835;40;102275;-38
2021/08/06 03:46:22;;;;;;;;;;;17.50;99.90;;;16.24;94.22;99876.22;3519542;40;102288;-39
2021/08/06 03:48:50;;;;;;;;;;;17.50;99.90;;;16.25;94.65;99879.78;3519571;40;103077;-39
2021/08/06 03:51:18;;;;;;;;;;;17.40;99.90;;;16.24;94.83;99880.88;3519535;39;103428;-39
2021/08/06 03:53:46;;;;;;;;;;;17.50;99.90;;;16.24;94.48;99875.38;3527788;39;102901;-39
2021/08/06 03:56:13;;;;;;;;;;;17.40;99.90;;;16.26;94.75;99875.94;3520114;39;105248;-39
2021/08/06 03:58:41;;;;;;;;;;;17.50;99.90;;;16.21;94.44;99884.19;3520846;39;102105;-39
2021/08/06 04:01:09;;;;;;;;;;;17.40;99.90;;;16.17;94.97;99880.34;3520799;39;103621;-39
2021/08/06 04:03:36;;;;;;;;;;;17.30;99.90;;;16.21;94.91;99879.53;3520486;39;102404;-42
2021/08/06 04:06:08;;;;;;;;;;;17.40;99.90;;;16.14;94.69;99876.19;3521039;39;103189;-39
2021/08/06 04:08:35;;;;;;;;;;;17.40;99.90;;;16.12;94.44;99872.88;3519342;40;104562;-39
2021/08/06 04:11:02;;;;;;;;;;;17.40;99.90;;;16.09;94.78;99873.44;3527693;39;103287;-41
2021/08/06 04:13:30;;;;;;;;;;;17.30;99.90;;;16.13;95.30;99874.53;3520742;39;102172;-39
2021/08/06 04:15:58;;;;;;;;;;;17.40;99.90;;;16.12;95.65;99874.81;3519166;40;103514;-41
2021/08/06 04:18:27;;;;;;;;;;;17.30;99.90;;;16.09;95.80;99878.94;3519249;40;102638;-40
2021/08/06 04:20:57;;;;;;;;;;;17.30;99.90;;;16.09;95.96;99871.53;3520465;40;103941;-40
2021/08/06 04:23:24;;;;;;;;;;;17.30;99.90;;;16.13;95.92;99877.28;3520772;39;102128;-39
2021/08/06 04:25:52;;;;;;;;;;;17.30;99.90;;;16.07;96.13;99872.88;3519988;39;103935;-40
2021/08/06 04:28:19;;;;;;;;;;;17.30;99.90;;;16.06;96.10;99877.56;3527420;39;102941;-39
2021/08/06 04:30:46;;;;;;;;;;;17.30;99.90;;;16.09;96.10;99876.19;3520843;39;102528;-39
2021/08/06 04:33:14;;;;;;;;;;;17.30;99.90;;;16.07;96.00;99872.88;3520544;39;102373;-41
2021/08/06 04:35:42;;;;;;;;;;;17.30;99.90;;;16.20;95.98;99879.78;3519962;40;102580;-39
2021/08/06 04:38:11;;;;;;;;;;;17.40;99.90;;;16.16;96.00;99881.44;3520650;39;102165;-39
2021/08/06 04:40:38;;;;;;;;;;;17.40;99.90;;;16.13;96.55;99877.28;3520291;39;103893;-39
2021/08/06 04:43:06;;;;;;;;;;;17.40;99.90;;;16.15;96.72;99883.34;3527655;39;103460;-39
2021/08/06 04:45:33;;;;;;;;;;;17.30;99.90;;;16.09;96.92;99884.44;3519167;40;103914;-40
2021/08/06 04:48:03;;;;;;;;;;;17.30;99.90;;;16.07;97.22;99889.41;3519077;40;102292;-40
2021/08/06 04:50:34;;;;;;;;;;;17.30;99.90;;;16.06;97.69;99887.75;3527658;39;102222;-39
2021/08/06 04:53:02;;;;;;;;;;;17.30;99.90;;;16.03;97.92;99874.53;3518957;40;102206;-39
2021/08/06 04:55:32;;;;;;;;;;;17.30;99.90;;;16.09;98.16;99879.78;3518549;40;102364;-39
2021/08/06 04:58:01;;;;;;;;;;;17.30;99.90;;;16.11;98.24;99876.75;3518974;40;102583;-43
2021/08/06 05:00:28;;;;;;;;;;;17.30;99.90;;;16.13;97.98;99881.97;3528335;39;103305;-39
2021/08/06 05:02:57;;;;;;;;;;;17.30;99.90;;;16.14;98.37;99878.94;3520482;39;102228;-39
2021/08/06 05:05:29;;;;;;;;;;;17.30;99.90;;;16.16;97.64;99878.69;3528642;39;103127;-39
2021/08/06 05:07:56;;;;;;;;;;;17.30;99.90;;;16.16;97.67;99879.50;3521801;39;102257;-39
2021/08/06 05:10:26;;;;;;;;;;;17.30;99.90;;;16.23;97.15;99874.56;3520371;40;102133;-39
2021/08/06 05:12:53;;;;;;;;;;;17.40;99.90;;;16.22;97.47;99877.59;3528103;39;102433;-41
2021/08/06 05:15:22;;;;;;;;;;;17.40;99.90;;;16.20;97.69;99880.63;3521259;39;104842;-39
2021/08/06 05:17:51;;;;;;;;;;;17.40;99.90;;;16.18;97.66;99871.81;3520083;40;102333;-39
2021/08/06 05:20:20;;;;;;;;;;;17.40;99.90;;;16.22;97.80;99875.66;3528496;39;104022;-40
2021/08/06 05:22:47;;;;;;;;;;;17.40;99.90;;;16.23;97.43;99880.06;3520373;40;102440;-39
2021/08/06 05:25:17;;;;;;;;;;;17.40;99.90;;;16.23;97.21;99871.81;3528286;39;103191;-40
2021/08/06 05:27:44;;;;;;;;;;;17.40;99.90;;;16.29;97.25;99871.81;3528624;39;102280;-39
2021/08/06 05:30:13;;;;;;;;;;;17.50;99.90;;;16.31;96.86;99866.88;3528241;39;103184;-40
2021/08/06 05:32:43;;;;;;;;;;;17.50;99.90;;;16.32;96.63;99877.59;3520181;40;102128;-39
2021/08/06 05:35:12;;;;;;;;;;;17.50;99.90;;;16.37;96.43;99874.00;3519907;40;104230;-40
2021/08/06 05:37:42;;;;;;;;;;;17.50;99.90;;;16.39;96.50;99869.06;3520053;40;102512;-40
2021/08/06 05:40:11;;;;;;;;;;;17.50;99.90;;;16.39;96.36;99880.06;3521410;39;104808;-39
2021/08/06 05:42:39;;;;;;;;;;;17.50;99.90;;;16.46;96.27;99882.56;3521061;39;102627;-39
2021/08/06 05:45:09;;;;;;;;;;;17.60;99.90;;;16.48;96.16;99886.69;3521387;39;102287;-40
2021/08/06 05:47:55;;;;;;;;;;;17.60;99.90;;;16.48;96.08;99878.44;3528346;39;102371;-41
2021/08/06 05:50:28;;;;;;;;;;;17.60;99.90;;;16.47;96.29;99884.22;3521673;39;102292;-41
2021/08/06 05:52:56;;;;;;;;;;;17.60;99.90;;;16.47;95.86;99884.22;3520024;40;102578;-39
2021/08/06 05:55:23;;;;;;;;;;;17.60;99.90;;;16.47;95.51;99885.03;3520952;39;103921;-39
2021/08/06 05:57:59;;;;;;;;;;;17.60;99.90;;;16.53;95.50;99888.59;3521152;39;102768;-39
2021/08/06 06:00:26;;;;;;;;;;;17.70;99.90;;;16.64;95.19;99889.44;3519837;40;103236;-39
2021/08/06 06:03:02;;;;;;;;;;;17.70;99.90;;;16.67;94.93;99888.88;3520023;40;102204;-39
2021/08/06 06:05:54;;;;;;;;;;;17.80;99.90;;;16.72;94.22;99891.66;3519829;40;104025;-39
2021/08/06 06:08:21;;;;;;;;;;;17.80;99.90;;;16.68;93.80;99874.84;3521354;40;102326;-39
2021/08/06 06:10:49;;;;;;;;;;;17.90;99.90;;;16.89;93.56;99896.88;3520619;39;102253;-39
2021/08/06 06:13:17;;;;;;;;;;;17.90;99.90;;;16.95;93.60;99893.00;3520825;39;102943;-39
2021/08/06 06:15:45;;;;;;;;;;;18.00;99.90;;;17.00;93.46;99899.63;3520977;39;103209;-39
2021/08/06 06:18:13;;;;;;;;;;;18.10;99.90;;;17.00;93.27;99892.19;3521024;39;102058;-41
2021/08/06 06:20:40;;;;;;;;;;;18.10;99.90;;;16.97;93.37;99900.97;3521422;39;105285;-40
2021/08/06 06:23:08;;;;;;;;;;;18.10;99.90;;;16.96;94.07;99902.06;3519882;40;102427;-39
2021/08/06 06:25:36;;;;;;;;;;;18.10;99.90;;;16.97;94.59;99895.44;3519931;40;103232;-40
2021/08/06 06:28:05;;;;;;;;;;;18.10;99.90;;;17.08;94.99;99899.03;3519770;40;102254;-39
2021/08/06 06:30:43;;;;;;;;;;;18.20;99.90;;;17.17;95.24;99907.56;3528209;39;105691;-39
2021/08/06 06:33:12;;;;;;;;;;;18.20;99.90;;;17.17;93.51;99899.31;3520136;40;102163;-39
2021/08/06 06:35:41;;;;;;;;;;;18.20;99.90;;;17.21;93.55;99908.66;3527858;39;104224;-39
2021/08/06 06:38:09;;;;;;;;;;;18.30;99.90;;;17.13;93.38;99912.00;3528296;39;104396;-39
2021/08/06 06:40:36;;;;;;;;;;;18.20;99.90;;;17.09;93.76;99920.81;3520959;40;103141;-40
2021/08/06 06:43:10;;;;;;;;;;;18.20;99.90;;;17.04;93.83;99917.25;3520138;39;102089;-41
2021/08/06 06:45:38;;;;;;;;;;;18.20;99.90;;;17.07;94.10;99916.69;3528264;39;102403;-41
2021/08/06 06:48:09;;;;;;;;;;;18.20;99.90;;;17.09;94.22;99912.56;3527819;39;102450;-39
2021/08/06 06:50:39;;;;;;;;;;;18.20;99.90;;;17.15;94.89;99910.63;3521247;39;104032;-39
2021/08/06 06:53:06;;;;;;;;;;;18.20;99.90;;;17.28;94.84;99917.47;3520753;39;102781;-40
2021/08/06 06:55:34;;;;;;;;;;;18.30;99.90;;;17.48;95.00;99919.34;3520608;39;104078;-39
2021/08/06 06:58:01;;;;;;;;;;;18.40;99.90;;;17.51;92.48;99924.28;3520826;39;102147;-39
2021/08/06 07:00:32;;;;;;;;;;;18.50;99.90;;;17.67;93.06;99925.06;3520234;40;103149;-42
2021/08/06 07:03:03;;;;;;;;;;;18.60;99.90;;;17.74;92.11;99923.94;3519801;40;102247;-39
2021/08/06 07:05:31;;;;;;;;;;;18.70;99.90;;;17.79;91.03;99921.16;3521491;39;103978;-40
2021/08/06 07:08:01;;;;;;;;;;;18.80;99.90;;;17.76;89.72;99933.56;3528186;39;102209;-39
2021/08/06 07:10:30;;;;;;;;;;;18.80;99.90;;;17.80;89.89;99926.38;3528245;39;102394;-39
2021/08/06 07:12:57;;;;;;;;;;;18.80;99.90;;;17.80;90.22;99931.91;3528057;39;102405;-42
2021/08/06 07:15:25;;;;;;;;;;;18.80;99.90;;;17.85;90.87;99928.31;3519898;40;104567;-39
2021/08/06 07:17:53;;;;;;;;;;;18.80;99.90;;;17.90;89.33;99925.50;3520014;39;102551;-39
2021/08/06 07:20:24;;;;;;;;;;;18.90;99.90;;;17.99;89.28;99928.50;3528255;39;103429;-39
2021/08/06 07:22:55;;;;;;;;;;;19.00;99.90;;;17.95;88.77;99935.72;3519571;40;102715;-39
2021/08/06 07:25:23;;;;;;;;;;;19.00;99.90;;;18.05;88.57;99932.09;3520864;39;103861;-40
2021/08/06 07:27:54;;;;;;;;;;;19.00;99.90;;;18.02;87.97;99921.59;3527971;39;103843;-39
2021/08/06 07:30:23;;;;;;;;;;;19.00;99.90;;;18.06;88.07;99917.19;3519918;40;104004;-39
2021/08/06 07:32:54;;;;;;;;;;;19.10;99.90;;;18.31;89.31;99923.66;3519926;40;102309;-40
2021/08/06 07:35:24;;;;;;;;;;;19.20;99.90;;;18.48;87.94;99929.59;3520488;40;103961;-42
2021/08/06 07:37:51;;;;;;;;;;;19.40;99.90;;;18.72;87.89;99925.28;3519940;40;104739;-39
2021/08/06 07:40:19;;;;;;;;;;;19.60;99.90;;;18.94;86.11;99931.16;3520620;39;102429;-41
2021/08/06 07:42:50;;;;;;;;;;;19.80;99.90;;;19.08;83.57;99934.09;3521218;40;102869;-41
2021/08/06 07:45:19;;;;;;;;;;;19.90;99.90;;;19.29;85.01;99922.00;3527891;39;104246;-39
2021/08/06 07:47:47;;;;;;;;;;;20.10;99.90;;;19.43;83.47;99922.94;3520752;39;102396;-42
2021/08/06 07:50:15;;;;;;;;;;;20.20;99.90;;;19.49;80.98;99926.47;3528211;39;103155;-40
2021/08/06 07:52:43;;;;;;;;;;;20.30;99.90;;;19.59;82.66;99928.31;3519746;40;102499;-42
2021/08/06 07:55:13;;;;;;;;;;;20.40;99.90;;;19.65;81.41;99929.88;3519428;40;105642;-40
2021/08/06 07:57:40;;;;;;;;;;;20.50;99.90;;;19.70;80.56;99918.75;3521206;39;102639;-40
2021/08/06 08:00:09;;;;;;;;;;;20.60;99.90;;;19.73;80.76;99911.81;3511728;40;104255;-37
2021/08/06 08:02:42;;;;;;;;;;;20.60;99.90;;;19.75;81.16;99924.22;3520640;40;102140;-39
2021/08/06 08:05:15;;;;;;;;;;;20.70;99.90;;;19.50;79.34;99950.25;3519327;40;103059;-40
2021/08/06 08:07:43;;;;;;;;;;;20.60;99.90;;;19.20;79.82;99958.56;3520558;39;103559;-39
2021/08/06 08:10:12;;;;;;;;;;;20.40;99.90;;;19.09;79.46;99960.59;3527700;39;104215;-40
2021/08/06 08:12:40;;;;;;;;;;;20.30;99.90;;;19.05;78.50;99961.50;3520965;39;102328;-40
2021/08/06 08:15:08;;;;;;;;;;;20.20;99.90;;;19.05;77.07;99969.78;3527657;39;103166;-39
2021/08/06 08:17:35;;;;;;;;;;;20.20;99.90;;;18.95;77.00;99967.91;3648876;22;103330;-40
2021/08/06 08:20:04;;;;;;;;;;;20.10;99.90;;;18.93;75.79;99972.91;3518845;40;104224;-40
2021/08/06 08:22:31;;;;;;;;;;;20.10;99.90;;;18.83;73.71;99977.41;3511166;40;102959;-40
2021/08/06 08:24:59;;;;;;;;;;;20.00;99.90;;;18.88;75.87;99981.25;3520072;40;102113;-40
2021/08/06 08:27:28;;;;;;;;;;;20.00;99.90;;;18.95;76.30;99978.97;3519025;40;102251;-40
2021/08/06 08:29:59;;;;;;;;;;;19.90;99.90;;;19.04;75.75;99980.00;3519119;40;103127;-40
2021/08/06 08:32:27;;;;;;;;;;;20.00;99.90;;;19.14;76.60;99981.88;3510794;40;103033;-41
2021/08/06 08:34:55;;;;;;;;;;;20.10;99.90;;;19.18;77.37;99982.13;3510141;40;103045;-40
2021/08/06 08:37:22;;;;;;;;;;;20.10;99.90;;;19.21;79.25;99984.28;3519191;40;103416;-40
2021/08/06 08:39:49;;;;;;;;;;;20.20;99.90;;;19.35;79.57;99984.44;3519952;40;102093;-40
2021/08/06 08:42:19;;;;;;;;;;;20.30;99.90;;;19.34;76.37;99989.13;3510941;40;102757;-41
2021/08/06 08:44:47;;;;;;;;;;;20.30;99.90;;;19.35;77.24;99984.44;3510792;40;103134;-40
2021/08/06 08:47:21;;;;;;;;;;;20.40;99.90;;;19.33;76.72;99992.19;3519309;40;102916;-40
2021/08/06 08:49:51;;;;;;;;;;;20.40;99.90;;;19.31;78.08;99995.25;3520100;40;103920;-40
2021/08/06 08:52:21;;;;;;;;;;;20.30;99.90;;;19.30;77.93;99993.59;3519252;40;102257;-41
2021/08/06 08:54:48;;;;;;;;;;;20.30;99.90;;;19.29;79.44;100005.78;3518781;40;102165;-41
2021/08/06 08:57:19;;;;;;;;;;;20.30;99.90;;;19.10;76.89;99998.22;3510734;40;102229;-40
2021/08/06 08:59:47;;;;;;;;;;;20.20;99.90;;;19.15;78.08;100002.84;3519768;40;104155;-41
2021/08/06 09:02:15;;;;;;;;;;;20.20;99.90;;;19.15;78.13;100005.63;3519805;40;102152;-40
2021/08/06 09:04:45;;;;;;;;;;;20.10;99.90;;;19.04;77.62;100006.84;3510801;40;102307;-40
2021/08/06 09:07:30;;;;;;;;;;;20.10;99.90;;;19.07;80.87;99995.19;3519341;40;102947;-41
2021/08/06 09:10:29;;;;;;;;;;;20.10;99.90;;;19.14;79.30;100006.75;3511044;40;102922;-40
2021/08/06 09:13:22;;;;;;;;;;;20.10;99.90;;;19.33;78.80;100001.31;3518828;40;102525;-40
2021/08/06 09:16:13;;;;;;;;;;;20.20;99.90;;;19.27;75.29;100008.00;3510325;40;103126;-40
2021/08/06 09:18:44;;;;;;;;;;;20.30;99.90;;;19.47;77.10;100009.72;3518810;40;103148;-40
2021/08/06 09:21:14;;;;;;;;;;;20.30;99.90;;;19.65;78.03;100010.97;3519949;40;102165;-41
2021/08/06 09:23:43;;;;;;;;;;;20.40;99.90;;;19.67;75.62;100007.88;3519728;40;102220;-41
2021/08/06 09:26:39;;;;;;;;;;;20.50;99.90;;;19.64;75.22;100003.78;3519204;40;103257;-41
2021/08/06 09:29:18;;;;;;;;;;;20.60;99.90;;;19.78;75.35;100003.91;3520164;40;101997;-40
2021/08/06 09:31:51;;;;;;;;;;;20.70;99.90;;;19.79;75.03;100001.94;3519740;40;102207;-42
2021/08/06 09:34:24;;;;;;;;;;;20.70;99.90;;;19.93;73.21;99994.63;3519701;40;102353;-41
2021/08/06 09:37:00;;;;;;;;;;;20.80;99.90;;;20.15;74.11;100004.28;3520083;40;103149;-40
2021/08/06 09:39:43;;;;;;;;;;;21.00;99.90;;;20.47;74.70;99990.84;3519656;40;102443;-40
2021/08/06 09:42:29;;;;;;;;;;;21.20;99.90;;;20.62;70.63;99992.56;3519926;40;103187;-41
2021/08/06 09:45:00;;;;;;;;;;;21.40;99.90;;;20.75;71.83;99989.03;3520108;40;102216;-40
2021/08/06 09:47:29;;;;;;;;;;;21.50;99.90;;;20.68;68.67;99978.31;3521270;40;103236;-40
2021/08/06 09:50:07;;;;;;;;;;;21.50;99.90;;;20.96;71.14;99988.75;3520819;40;102374;-41
2021/08/06 09:52:36;;;;;;;;;;;21.70;99.90;;;21.10;69.94;99994.31;3511834;40;103077;-40
2021/08/06 09:55:26;;;;;;;;;;;21.90;99.90;;;21.46;72.69;99998.38;3520586;40;102145;-41
2021/08/06 09:57:55;;;;;;;;;;;22.10;99.90;;;21.21;66.38;99989.38;3521026;40;103177;-41
2021/08/06 10:00:24;;;;;;;;;;;22.20;99.90;;;21.30;69.42;99990.34;3521196;40;102415;-40
2021/08/06 10:02:53;;;;;;;;;;;22.20;99.90;;;21.47;68.47;99994.47;3521198;40;102292;-40
2021/08/06 10:05:24;;;;;;;;;;;22.30;99.90;;;21.39;68.51;99996.03;3520874;40;102208;-41
2021/08/06 10:07:54;;;;;;;;;;;22.30;99.90;;;21.18;68.08;99990.84;3520634;40;103196;-40
2021/08/06 10:10:25;;;;;;;;;;;22.20;99.90;;;21.25;69.61;99996.00;3521524;39;102157;-40
2021/08/06 10:12:53;;;;;;;;;;;22.20;99.90;;;21.49;69.01;99995.03;3521468;40;103255;-40
2021/08/06 10:15:22;;;;;;;;;;;22.30;99.90;;;21.44;67.20;99989.53;3520675;40;102324;-40
2021/08/06 10:17:51;;;;;;;;;;;22.30;99.90;;;21.56;66.94;99999.00;3520379;40;102990;-41
2021/08/06 10:20:21;;;;;;;;;;;;;;;21.70;68.55;99990.72;3521288;39;102358;-40
2021/08/06 10:22:50;;;;;;;;;;;22.50;99.90;;;22.16;65.98;99988.13;3520663;40;102191;-41
2021/08/06 10:25:20;;;;;;;;;;;22.80;99.90;;;22.57;68.75;99991.97;3521160;39;102493;-41
2021/08/06 10:27:49;;;;;;;;;;;23.10;99.90;;;22.48;62.99;99991.06;3520814;40;102406;-41
2021/08/06 10:30:29;;;;;;;;;;;23.20;99.90;;;22.06;63.07;99988.34;3520891;39;102378;-41
2021/08/06 10:33:20;;;;;;;;;;;23.10;99.90;;;21.81;65.84;99991.34;3521095;40;102269;-41
2021/08/06 10:35:50;;;;;;;;;;;22.90;99.90;;;21.74;66.23;99993.72;3521115;40;102103;-41
2021/08/06 10:38:40;;;;;;;;;;;22.70;99.90;;;21.56;64.82;99993.47;3520787;40;102619;-42
2021/08/06 10:41:23;;;;;;;;;;;22.60;99.90;;;21.47;65.07;100000.88;3520991;40;102989;-41
2021/08/06 10:44:01;;;;;;;;;;;22.50;99.90;;;21.32;68.25;99992.81;3518826;40;103340;-40
2021/08/06 10:46:54;;;;;;;;;;;22.30;99.90;;;21.02;68.35;99995.00;3520728;40;102347;-40
2021/08/06 10:49:21;;;;;;;;;;;22.10;99.90;;;20.81;68.00;100006.41;3520254;40;103195;-40
2021/08/06 10:52:08;;;;;;;;;;;22.00;99.90;;;20.62;74.26;100012.78;3520254;40;102231;-40
2021/08/06 10:54:36;;;;;;;;;;;21.80;99.90;;;20.15;71.93;100018.13;3520651;40;102221;-40
2021/08/06 10:57:14;;;;;;;;;;;21.50;99.90;;;19.73;75.14;100025.25;3520132;40;102198;-41
2021/08/06 10:59:42;;;;;;;;;;;21.10;99.90;;;19.43;77.74;100018.94;3521133;40;102191;-40
2021/08/06 11:02:34;;;;;;;;;;;20.80;99.90;;;19.22;77.96;100019.94;3520989;40;103104;-40
2021/08/06 11:05:29;;;;;;;;;;;20.60;99.90;;;19.07;78.90;100012.59;3520464;40;103317;-40
2021/08/06 11:07:59;;;;;;;;;;;20.30;99.90;;;19.05;81.82;100019.53;3520966;39;102218;-40
2021/08/06 11:10:45;;;;;;;;;;;20.20;99.90;;;19.06;82.32;100016.47;3521035;40;102268;-40
2021/08/06 11:13:31;;;;;;;;;;;20.20;99.90;;;19.13;81.50;100021.69;3520733;40;102473;-40
2021/08/06 11:16:08;;;;;;;;;;;20.10;99.90;;;19.28;82.88;100015.19;3520566;39;103431;-40
2021/08/06 11:18:43;;;;;;;;;;;20.30;99.90;;;19.45;84.30;100014.75;3520657;40;102507;-40
2021/08/06 11:21:10;;;;;;;;;;;20.30;99.90;;;19.57;82.30;100011.56;3520847;40;103260;-40
2021/08/06 11:23:38;;;;;;;;;;;20.50;99.90;;;19.69;81.47;100005.63;3520639;40;102433;-40
2021/08/06 11:26:09;;;;;;;;;;;20.60;99.90;;;19.84;82.68;100001.88;3520189;40;102326;-40
2021/08/06 11:28:37;;;;;;;;;;;20.70;99.90;;;20.05;81.89;100002.50;3520914;40;102713;-40